Buoy 41991

sailwx.info

Track history (hours):
 
Tides and Currents Weather Stations Pressure Air Temp Water Temp Dewpoint Dewpoint Depression Visibility Wind Speed Wind Dir Waves Ship Positions

Drifting buoy 41991

Last reported at 2016-Aug-29 19:44 UTC. Time now 2016-Aug-29 21:36 UTC.
Position N 28°26' W 053°47'.

Water temperature 28.2 ° C

Date/timePositionNaut miles runAvg speedWind from/ knotsBaromVisibWave heightAir tempDewpointWater temp
2016-Aug-29 19:44N 28°26' W 053°47'0 0.5 28.2
2016-Aug-29 18:52N 28°26' W 053°47'0 1.9 28.2
2016-Aug-29 18:47N 28°26' W 053°47'3 0.5 28.2
2016-Aug-29 13:19N 28°24' W 053°49'1 0.8 28.1
2016-Aug-29 11:44N 28°24' W 053°51'1 1.1 28.1
2016-Aug-29 11:03N 28°23' W 053°51'0 1.0 28.1
2016-Aug-29 10:51N 28°23' W 053°51'3 3.3 28.1
2016-Aug-29 09:57N 28°21' W 053°54'0 0.0 28.1
2016-Aug-29 09:27N 28°21' W 053°54'0 0.0 28.1
2016-Aug-29 09:18N 28°21' W 053°54'0 0.0 28.1
2016-Aug-29 09:00N 28°21' W 053°54'0 0.0 28.1
2016-Aug-29 08:23N 28°21' W 053°54'0 0.0 28.1
2016-Aug-29 07:45N 28°21' W 053°54'0 1.7 28.2
2016-Aug-29 07:33N 28°21' W 053°54'217.7 28.2
2016-Aug-29 07:27N 28°19' W 053°55'0 0.2 28.2
2016-Aug-29 05:49N 28°20' W 053°55'4 1.0 28.2
2016-Aug-29 01:47N 28°16' W 053°55'0 5.8 28.2
2016-Aug-29 01:42N 28°15' W 053°55'0 0.0 28.2
2016-Aug-29 00:53N 28°15' W 053°55'1 1.4 28.2
2016-Aug-29 00:07N 28°15' W 053°56'1 9.4 28.1
2016-Aug-29 00:02N 28°14' W 053°56'0 0.0 28.1
2016-Aug-28 23:51N 28°14' W 053°56'0 0.0 28.1
2016-Aug-28 23:17N 28°14' W 053°56'0 1.6 28.1
2016-Aug-28 23:08N 28°14' W 053°55'0 0.0
2016-Aug-28 22:27N 28°14' W 053°55'1 3.6 28.2
2016-Aug-28 22:13N 28°13' W 053°56'110.1 28.2
2016-Aug-28 22:08N 28°14' W 053°55'1 1.4 28.2
2016-Aug-28 21:32N 28°13' W 053°56'0 0.0 28.2
2016-Aug-28 20:49N 28°13' W 053°56'0 2.0 28.2
2016-Aug-28 20:38N 28°13' W 053°56'1 1.2 28.2
2016-Aug-28 19:54N 28°12' W 053°56'1 0.6 28.2
2016-Aug-28 19:04N 28°12' W 053°57'0 2.2 28.2
2016-Aug-28 18:58N 28°12' W 053°57'1 0.7 28.2
2016-Aug-28 17:26N 28°12' W 053°58'2 1.0 28.2
2016-Aug-28 15:16N 28°10' W 053°59'0 0.0 28.2
2016-Aug-28 14:35N 28°10' W 053°59'1 3.8 28.2
2016-Aug-28 14:27N 28°10' W 053°59'0 0.1 28.2
2016-Aug-28 13:39N 28°10' W 053°59'1 1.2 28.2
2016-Aug-28 12:55N 28°09' W 054°00'1 4.5 28.2
2016-Aug-28 12:48N 28°09' W 054°00'0 0.3 28.2
2016-Aug-28 11:54N 28°09' W 054°01'1 8.2 28.2
2016-Aug-28 11:50N 28°09' W 054°00'0 0.0 28.2
2016-Aug-28 11:08N 28°09' W 054°00'1 1.5 28.3
2016-Aug-28 10:16N 28°08' W 054°02'1 1.8 28.3
2016-Aug-28 09:55N 28°08' W 054°01'1 0.4 28.3
2016-Aug-28 08:36N 28°08' W 054°01'1 1.7 28.4
2016-Aug-28 08:16N 28°07' W 054°02'0 0.9 28.4
2016-Aug-28 07:44N 28°07' W 054°02'112.1 28.4
2016-Aug-28 07:39N 28°07' W 054°01'2 1.1 28.4
2016-Aug-28 06:01N 28°06' W 054°03'3 0.5 28.5
2016-Aug-28 01:17N 28°04' W 054°05'1 5.1 28.5
2016-Aug-28 01:10N 28°04' W 054°06'0 0.0 28.5
2016-Aug-28 00:29N 28°04' W 054°06'0 1.1 28.5
2016-Aug-28 00:26N 28°04' W 054°06'0 0.5 28.5
2016-Aug-27 23:36N 28°04' W 054°06'0 3.3 28.5
2016-Aug-27 23:29N 28°04' W 054°07'0 0.0 28.5
2016-Aug-27 22:51N 28°04' W 054°07'0 0.0 28.5
2016-Aug-27 22:46N 28°04' W 054°07'1 0.6 28.5
2016-Aug-27 21:47N 28°04' W 054°08'1 8.1 28.5
2016-Aug-27 21:43N 28°04' W 054°08'0 0.0 28.5
2016-Aug-27 21:15N 28°04' W 054°08'1 0.7 28.5
2016-Aug-27 19:33N 28°04' W 054°09'0 3.6 28.5
2016-Aug-27 19:30N 28°04' W 054°09'0 0.0 28.5
2016-Aug-27 19:15N 28°04' W 054°09'1 6.9 28.5
2016-Aug-27 19:08N 28°04' W 054°10'0 0.0 28.5
2016-Aug-27 17:37N 28°04' W 054°10'1 5.5 28.5
2016-Aug-27 17:28N 28°05' W 054°10'0 0.0 28.5
2016-Aug-27 14:53N 28°05' W 054°10'1 0.6 28.6
2016-Aug-27 14:02N 28°04' W 054°10'1 1.1 28.6
2016-Aug-27 13:08N 28°05' W 054°10'1 1.4 28.6
2016-Aug-27 12:18N 28°05' W 054°09'1 2.9 28.6
2016-Aug-27 12:04N 28°05' W 054°09'0 0.0 28.6
2016-Aug-27 11:37N 28°05' W 054°09'1 1.0 28.5
2016-Aug-27 10:29N 28°06' W 054°08'0 2.1 28.6
2016-Aug-27 10:19N 28°06' W 054°08'0 0.0 28.6
2016-Aug-27 10:01N 28°06' W 054°08'0 0.0 28.6
2016-Aug-27 09:57N 28°06' W 054°08'2 1.3 28.6
2016-Aug-27 08:48N 28°06' W 054°06'1 8.2 28.7
2016-Aug-27 08:41N 28°07' W 054°05'0 0.0 28.7
2016-Aug-27 08:14N 28°07' W 054°05'0 0.0 28.7
2016-Aug-27 07:54N 28°07' W 054°05'0 3.6 28.7
2016-Aug-27 07:52N 28°07' W 054°05'1 0.5 28.7
2016-Aug-27 06:18N 28°07' W 054°04'0 2.9 28.7
2016-Aug-27 06:09N 28°07' W 054°04'3 0.6 28.7
2016-Aug-27 01:38N 28°07' W 054°01'0 1.8 28.7
2016-Aug-27 01:31N 28°07' W 054°01'0 0.0 28.7
2016-Aug-27 00:52N 28°07' W 054°01'0 0.8 28.7
2016-Aug-27 00:48N 28°07' W 054°01'0 3.8 28.7
2016-Aug-27 00:41N 28°07' W 054°01'0 0.0 28.7
2016-Aug-26 23:54N 28°07' W 054°01'0 5.2 28.7
2016-Aug-26 23:49N 28°07' W 054°01'0 0.0 28.7
2016-Aug-26 23:17N 28°07' W 054°01'0 1.4 28.7
2016-Aug-26 23:05N 28°07' W 054°00'0 0.4 28.7
2016-Aug-26 22:00N 28°06' W 053°60'0 0.5 28.7
2016-Aug-26 21:39N 28°06' W 053°60'1 0.5 28.7
2016-Aug-26 20:20N 28°06' W 053°59'0 1.4 28.7
2016-Aug-26 19:59N 28°06' W 053°59'0 0.0 28.7
2016-Aug-26 19:27N 28°06' W 053°59'1 8.1 28.7
2016-Aug-26 19:20N 28°05' W 053°59'0 0.0 28.7
2016-Aug-26 17:49N 28°05' W 053°59'4 2.0 28.7
2016-Aug-26 16:04N 28°04' W 053°56'0 0.0 28.6
2016-Aug-26 14:20N 28°04' W 053°56'0 5.4 28.7
2016-Aug-26 14:15N 28°04' W 053°55'0 0.0 28.7
2016-Aug-26 13:36N 28°04' W 053°55'0 4.8 28.7
2016-Aug-26 13:30N 28°04' W 053°55'0 0.0 28.7
2016-Aug-26 12:39N 28°04' W 053°55'1 1.4 28.7
2016-Aug-26 11:50N 28°03' W 053°54'0 0.3 28.7
2016-Aug-26 10:53N 28°03' W 053°53'0 0.0 28.7
2016-Aug-26 10:39N 28°03' W 053°53'0 0.5 28.7
2016-Aug-26 10:32N 28°03' W 053°53'0 0.0 28.7
2016-Aug-26 10:27N 28°03' W 053°53'1 0.6 28.7
2016-Aug-26 09:21N 28°03' W 053°53'0 0.4 28.7
2016-Aug-26 08:59N 28°03' W 053°53'0 0.6 28.7
2016-Aug-26 08:54N 28°03' W 053°53'0 9.5 28.7
2016-Aug-26 08:52N 28°03' W 053°52'0 0.0 28.7
2016-Aug-26 08:08N 28°03' W 053°52'0 0.5 28.7
2016-Aug-26 07:39N 28°03' W 053°52'1 0.6 28.7
2016-Aug-26 06:29N 28°03' W 053°52'0 0.0 28.7
2016-Aug-26 06:22N 28°03' W 053°52'2 0.4 28.7
2016-Aug-26 01:51N 28°02' W 053°50'011.8 28.8
2016-Aug-26 01:49N 28°01' W 053°50'0 0.0 28.8
2016-Aug-26 01:08N 28°01' W 053°50'0 1.1 28.8
2016-Aug-26 01:05N 28°01' W 053°50'0 0.4 28.8
2016-Aug-26 00:18N 28°01' W 053°49'0 0.5 28.8
2016-Aug-26 00:08N 28°01' W 053°49'0 0.0 28.8
2016-Aug-25 23:45N 28°01' W 053°49'0 0.0 28.8
2016-Aug-25 23:30N 28°01' W 053°49'1 5.0 28.8
2016-Aug-25 23:23N 28°01' W 053°49'0 0.2 28.8
2016-Aug-25 22:03N 28°00' W 053°49'0 0.3 28.9
2016-Aug-25 20:32N 28°00' W 053°50'1 4.5 28.9
2016-Aug-25 20:23N 27°60' W 053°49'0 0.2 28.9
2016-Aug-25 19:37N 27°60' W 053°49'1 0.8 29.0
2016-Aug-25 18:00N 27°58' W 053°49'2 0.9 28.9
2016-Aug-25 16:17N 27°57' W 053°48'1 0.6 28.9
2016-Aug-25 14:42N 27°56' W 053°48'1 7.4 28.8
2016-Aug-25 14:37N 27°56' W 053°48'0 0.1 28.8
2016-Aug-25 13:56N 27°56' W 053°48'1 1.1 28.7
2016-Aug-25 13:01N 27°55' W 053°47'2 0.8 28.7
2016-Aug-25 10:47N 27°54' W 053°46'0 5.4 28.7
2016-Aug-25 10:45N 27°54' W 053°46'0 0.2 28.7
2016-Aug-25 09:43N 27°54' W 053°45'0 0.3 28.7
2016-Aug-25 08:17N 27°54' W 053°45'0 0.2 28.7
2016-Aug-25 06:34N 27°54' W 053°45'3 0.6 28.7
2016-Aug-25 02:17N 27°52' W 053°42'0 3.2 28.8
2016-Aug-25 02:13N 27°52' W 053°42'0 0.1 28.8
2016-Aug-25 01:31N 27°52' W 053°42'1 5.4 28.8
2016-Aug-25 01:24N 27°52' W 053°42'0 0.0 28.8
2016-Aug-25 00:37N 27°52' W 053°42'0 0.4 28.9
2016-Aug-24 23:51N 27°52' W 053°41'1 4.2 28.9
2016-Aug-24 23:42N 27°51' W 053°41'0 0.2 28.9
2016-Aug-24 22:54N 27°51' W 053°41'0 0.4 28.9
2016-Aug-24 22:23N 27°51' W 053°41'1 0.5
2016-Aug-24 20:54N 27°50' W 053°41'0 1.4 29.0
2016-Aug-24 20:49N 27°50' W 053°41'0 0.7 29.0
2016-Aug-24 20:44N 27°50' W 053°41'1 1.0 29.0
2016-Aug-24 19:47N 27°49' W 053°40'1 0.9 29.1
2016-Aug-24 18:10N 27°49' W 053°39'0 1.1 29.2
2016-Aug-24 18:07N 27°49' W 053°39'2 1.5
2016-Aug-24 16:29N 27°47' W 053°38'0 0.0 29.1
2016-Aug-24 14:59N 27°47' W 053°38'0 0.0 29.0
2016-Aug-24 14:17N 27°47' W 053°38'1 7.5 28.9
2016-Aug-24 14:08N 27°46' W 053°37'0 0.0 28.9
2016-Aug-24 13:21N 27°46' W 053°37'0 0.2 28.9
2016-Aug-24 11:13N 27°46' W 053°37'0 1.6 28.9
2016-Aug-24 11:06N 27°45' W 053°37'0 2.1 28.9
2016-Aug-24 10:59N 27°46' W 053°36'1 0.9 28.9
2016-Aug-24 10:14N 27°45' W 053°36'0 0.1 28.9
2016-Aug-24 09:28N 27°45' W 053°36'0 0.0 28.9
2016-Aug-24 09:21N 27°45' W 053°36'0 0.4 28.9
2016-Aug-24 08:27N 27°45' W 053°36'1 0.6 28.9
2016-Aug-24 06:44N 27°44' W 053°35'0 2.8 28.9
2016-Aug-24 06:40N 27°45' W 053°35'1 0.3 28.9
2016-Aug-24 02:34N 27°43' W 053°34'0 0.0 28.9
2016-Aug-24 01:49N 27°43' W 053°34'0 2.0 29.0
2016-Aug-24 01:44N 27°43' W 053°34'0 0.0 29.0
2016-Aug-24 00:54N 27°43' W 053°34'013.0 29.0
2016-Aug-24 00:52N 27°43' W 053°34'0 0.0 29.0
2016-Aug-24 00:08N 27°43' W 053°34'0 3.8 29.0
2016-Aug-24 00:02N 27°42' W 053°34'0 0.1 29.0
2016-Aug-23 23:07N 27°42' W 053°34'0 2.4 29.0
2016-Aug-23 23:05N 27°42' W 053°34'0 0.8 29.0
2016-Aug-23 22:49N 27°42' W 053°34'0 0.2 29.0
2016-Aug-23 22:33N 27°42' W 053°34'0 0.4 29.1
2016-Aug-23 21:31N 27°42' W 053°34'0 1.0 29.1
2016-Aug-23 21:15N 27°42' W 053°34'0 2.5 29.1
2016-Aug-23 21:06N 27°41' W 053°34'0 0.0 29.1
2016-Aug-23 20:53N 27°41' W 053°34'0 0.0 29.1
2016-Aug-23 20:52N 27°41' W 053°34'0 0.9 29.1
2016-Aug-23 20:48N 27°41' W 053°34'0 0.0 29.1
2016-Aug-23 20:00N 27°41' W 053°34'2 2.9 29.1
2016-Aug-23 19:26N 27°40' W 053°33'0 0.0 29.1
2016-Aug-23 18:20N 27°40' W 053°33'111.4 29.1
2016-Aug-23 18:15N 27°40' W 053°32'2 1.1 29.1
2016-Aug-23 16:40N 27°39' W 053°31'0 0.0 29.1
2016-Aug-23 14:37N 27°39' W 053°31'0 3.4 28.9
2016-Aug-23 14:30N 27°38' W 053°31'0 0.1 28.9
2016-Aug-23 13:42N 27°38' W 053°31'0 0.4 28.9
2016-Aug-23 12:50N 27°39' W 053°30'0 4.5 28.9
2016-Aug-23 12:45N 27°38' W 053°30'0 0.6 28.9
2016-Aug-23 11:58N 27°38' W 053°30'0 0.0 28.8
2016-Aug-23 11:37N 27°38' W 053°30'0 0.5 28.8
2016-Aug-23 11:17N 27°38' W 053°30'0 1.5 28.8
2016-Aug-23 11:08N 27°38' W 053°30'0 1.2 28.8
2016-Aug-23 10:49N 27°38' W 053°30'0 2.4 28.8
2016-Aug-23 10:43N 27°38' W 053°30'0 0.0 28.8
2016-Aug-23 10:01N 27°38' W 053°30'0 0.5 28.8
2016-Aug-23 09:54N 27°38' W 053°30'0 0.2 28.8
2016-Aug-23 09:32N 27°38' W 053°30'0 1.5 28.8
2016-Aug-23 09:25N 27°38' W 053°30'0 0.0 28.8
2016-Aug-23 09:07N 27°38' W 053°30'0 0.4 28.8
2016-Aug-23 08:39N 27°38' W 053°30'1 3.4
2016-Aug-23 08:19N 27°37' W 053°29'0 0.0 28.8
2016-Aug-23 07:31N 27°37' W 053°29'0 0.6 28.8
2016-Aug-23 06:53N 27°37' W 053°29'2 0.4 28.8
2016-Aug-23 02:05N 27°35' W 053°28'0 0.0 28.8
2016-Aug-23 01:20N 27°35' W 053°28'0 1.6 28.9
2016-Aug-23 01:09N 27°35' W 053°28'0 0.0
2016-Aug-23 00:34N 27°35' W 053°28'0 2.4 28.9
2016-Aug-23 00:26N 27°35' W 053°28'0 0.5 28.9
2016-Aug-22 23:38N 27°35' W 053°28'1 0.7 28.9
2016-Aug-22 22:45N 27°34' W 053°28'112.4 28.9
2016-Aug-22 22:41N 27°34' W 053°27'0 0.0 28.9
2016-Aug-22 22:02N 27°34' W 053°27'0 1.1 28.9
2016-Aug-22 21:39N 27°34' W 053°27'1 1.0 28.9
2016-Aug-22 21:03N 27°34' W 053°27'0 0.0 29.0
2016-Aug-22 20:17N 27°34' W 053°27'0 1.2 29.0
2016-Aug-22 19:57N 27°34' W 053°26'1 1.4 29.0
2016-Aug-22 19:23N 27°33' W 053°25'0 0.0 29.0
2016-Aug-22 18:32N 27°33' W 053°25'1 8.2 29.0
2016-Aug-22 18:26N 27°33' W 053°26'1 0.6 29.0
2016-Aug-22 16:52N 27°32' W 053°25'2 0.6 29.0
2016-Aug-22 14:02N 27°32' W 053°24'0 3.3 28.9
2016-Aug-22 13:57N 27°32' W 053°23'0 0.0 28.9
2016-Aug-22 13:19N 27°32' W 053°23'0 0.0 28.9
2016-Aug-22 13:14N 27°32' W 053°23'0 0.4 28.9
2016-Aug-22 12:21N 27°32' W 053°23'0 3.7 28.9
2016-Aug-22 12:17N 27°32' W 053°23'0 0.0 28.9
2016-Aug-22 11:27N 27°32' W 053°23'0 9.7 28.9
2016-Aug-22 11:24N 27°32' W 053°23'0 0.4 28.9
2016-Aug-22 10:23N 27°32' W 053°23'0 0.7 28.8
2016-Aug-22 09:47N 27°32' W 053°23'0 1.6 28.8
2016-Aug-22 09:44N 27°32' W 053°23'0 0.1 28.8
2016-Aug-22 08:41N 27°32' W 053°23'0 0.0 28.8
2016-Aug-22 08:02N 27°32' W 053°23'0 0.2 28.8
2016-Aug-22 07:09N 27°32' W 053°22'1 6.0 28.8
2016-Aug-22 07:03N 27°31' W 053°22'1 0.3 28.8
2016-Aug-22 01:40N 27°30' W 053°22'1 5.2 28.9
2016-Aug-22 01:33N 27°30' W 053°21'0 0.0 28.9
2016-Aug-22 00:54N 27°30' W 053°21'0 1.0 28.9
2016-Aug-22 00:47N 27°30' W 053°21'0 0.5 28.9
2016-Aug-21 23:53N 27°30' W 053°21'1 0.6 28.9
2016-Aug-21 22:55N 27°29' W 053°21'0 4.0 28.9
2016-Aug-21 22:51N 27°29' W 053°21'0 0.0 28.9
2016-Aug-21 22:33N 27°29' W 053°21'1 1.2 28.9
2016-Aug-21 22:03N 27°29' W 053°21'0 2.6 28.9
2016-Aug-21 21:54N 27°29' W 053°21'1 0.8 28.9
2016-Aug-21 20:53N 27°29' W 053°20'0 0.7 28.9
2016-Aug-21 20:21N 27°28' W 053°20'1 1.0 28.9
2016-Aug-21 19:37N 27°29' W 053°19'1 0.8 28.9
2016-Aug-21 18:38N 27°28' W 053°20'1 0.9 28.9
2016-Aug-21 17:03N 27°28' W 053°18'2 0.6 28.9
2016-Aug-21 14:25N 27°28' W 053°17'1 0.9 28.8
2016-Aug-21 13:36N 27°28' W 053°16'0 0.3 28.8
2016-Aug-21 12:43N 27°28' W 053°16'0 0.4 28.8
2016-Aug-21 11:37N 27°28' W 053°16'0 4.1 28.8
2016-Aug-21 11:32N 27°28' W 053°15'0 0.2 28.8
2016-Aug-21 10:49N 27°28' W 053°15'0 0.7 28.8
2016-Aug-21 10:15N 27°28' W 053°15'0 0.5 28.8
2016-Aug-21 10:08N 27°28' W 053°15'1 2.2 28.8
2016-Aug-21 09:52N 27°29' W 053°15'0 0.1 28.8
2016-Aug-21 08:35N 27°28' W 053°15'0 0.3 28.8
2016-Aug-21 07:24N 27°29' W 053°15'0 0.1 28.8
2016-Aug-21 05:40N 27°29' W 053°15'1 0.1 28.9
2016-Aug-21 02:01N 27°28' W 053°15'0 1.6 28.9
2016-Aug-21 01:54N 27°28' W 053°15'0 0.7 28.9
2016-Aug-21 01:11N 27°28' W 053°15'0 0.0 28.9
2016-Aug-21 00:19N 27°28' W 053°15'0 0.3 28.9
2016-Aug-20 23:35N 27°28' W 053°15'0 2.0 29.0
2016-Aug-20 23:24N 27°27' W 053°15'0 0.9 29.0
2016-Aug-20 23:06N 27°27' W 053°15'1 7.7 29.0
2016-Aug-20 22:59N 27°27' W 053°14'0 0.0 29.0
2016-Aug-20 22:23N 27°27' W 053°14'0 0.1 29.0
2016-Aug-20 21:24N 27°26' W 053°15'018.3 29.1
2016-Aug-20 21:23N 27°26' W 053°14'0 0.4 29.1
2016-Aug-20 20:49N 27°26' W 053°14'0 0.0 29.1
2016-Aug-20 20:38N 27°26' W 053°14'1 1.2 29.2
2016-Aug-20 19:48N 27°26' W 053°13'0 0.0 29.2
2016-Aug-20 18:55N 27°26' W 053°13'0 3.4 29.3
2016-Aug-20 18:49N 27°26' W 053°14'2 0.4 29.3
2016-Aug-20 14:45N 27°26' W 053°12'0 4.1 29.1
2016-Aug-20 14:40N 27°26' W 053°11'0 0.0
2016-Aug-20 13:53N 27°26' W 053°11'110.2 29.0
2016-Aug-20 13:50N 27°26' W 053°11'0 0.2 29.0
2016-Aug-20 12:08N 27°26' W 053°11'0 0.0
2016-Aug-20 11:48N 27°26' W 053°11'0 0.7 28.8
2016-Aug-20 11:13N 27°26' W 053°11'1 1.1 28.8
2016-Aug-20 10:42N 27°26' W 053°10'0 0.0 28.8
2016-Aug-20 10:09N 27°26' W 053°10'0 0.0 28.8
2016-Aug-20 10:05N 27°26' W 053°10'0 0.0 28.8
2016-Aug-20 10:01N 27°26' W 053°10'0 0.2 28.8
2016-Aug-20 09:28N 27°26' W 053°11'0 0.3 28.8
2016-Aug-20 09:06N 27°26' W 053°10'0 1.5 28.8
2016-Aug-20 09:01N 27°26' W 053°11'0 0.6 28.8
2016-Aug-20 08:27N 27°26' W 053°10'0 0.1 28.9
2016-Aug-20 07:49N 27°26' W 053°10'0 0.0 28.9
2016-Aug-20 07:30N 27°26' W 053°10'0 0.0 28.9
2016-Aug-20 07:25N 27°26' W 053°10'0 0.0 28.9
2016-Aug-20 05:52N 27°26' W 053°10'1 0.2 28.9
2016-Aug-20 02:21N 27°26' W 053°10'1 0.7 29.1
2016-Aug-20 01:33N 27°26' W 053°11'0 0.0 29.1
2016-Aug-20 00:40N 27°26' W 053°11'0 0.5 29.1
2016-Aug-20 00:34N 27°26' W 053°11'0 0.0 29.1
2016-Aug-19 23:53N 27°26' W 053°11'0 3.2
2016-Aug-19 23:52N 27°26' W 053°10'1 2.2 29.2
2016-Aug-19 23:32N 27°25' W 053°10'0 0.7 29.2
2016-Aug-19 22:54N 27°25' W 053°11'0 0.0 29.2
2016-Aug-19 22:49N 27°25' W 053°11'0 0.0 29.2
2016-Aug-19 21:54N 27°25' W 053°11'1 3.3 29.3
2016-Aug-19 21:43N 27°25' W 053°10'0 1.1 29.3
2016-Aug-19 21:40N 27°25' W 053°10'114.3 29.3
2016-Aug-19 21:36N 27°25' W 053°11'1 1.9 29.3
2016-Aug-19 21:07N 27°25' W 053°10'0 0.0 29.4
2016-Aug-19 20:01N 27°25' W 053°10'   29.4
Track history (hours):
 
Tides and Currents Weather Stations Pressure Air Temp Water Temp Dewpoint Dewpoint Depression Visibility Wind Speed Wind Dir Waves Ship Positions

Drifting buoy 41991

Last reported at 2016-Aug-29 19:44 UTC. Time now 2016-Aug-29 21:36 UTC.
Position N 28°26' W 053°47'.

Water temperature 28.2 ° C

Date/timePositionNaut miles runAvg speedWind from/ knotsBaromVisibWave heightAir tempDewpointWater temp
2016-Aug-29 19:44N 28°26' W 053°47'0 0.5 28.2
2016-Aug-29 18:52N 28°26' W 053°47'0 1.9 28.2
2016-Aug-29 18:47N 28°26' W 053°47'3 0.5 28.2
2016-Aug-29 13:19N 28°24' W 053°49'1 0.8 28.1
2016-Aug-29 11:44N 28°24' W 053°51'1 1.1 28.1
2016-Aug-29 11:03N 28°23' W 053°51'0 1.0 28.1
2016-Aug-29 10:51N 28°23' W 053°51'3 3.3 28.1
2016-Aug-29 09:57N 28°21' W 053°54'0 0.0 28.1
2016-Aug-29 09:27N 28°21' W 053°54'0 0.0 28.1
2016-Aug-29 09:18N 28°21' W 053°54'0 0.0 28.1
2016-Aug-29 09:00N 28°21' W 053°54'0 0.0 28.1
2016-Aug-29 08:23N 28°21' W 053°54'0 0.0 28.1
2016-Aug-29 07:45N 28°21' W 053°54'0 1.7 28.2
2016-Aug-29 07:33N 28°21' W 053°54'217.7 28.2
2016-Aug-29 07:27N 28°19' W 053°55'0 0.2 28.2
2016-Aug-29 05:49N 28°20' W 053°55'4 1.0 28.2
2016-Aug-29 01:47N 28°16' W 053°55'0 5.8 28.2
2016-Aug-29 01:42N 28°15' W 053°55'0 0.0 28.2
2016-Aug-29 00:53N 28°15' W 053°55'1 1.4 28.2
2016-Aug-29 00:07N 28°15' W 053°56'1 9.4 28.1
2016-Aug-29 00:02N 28°14' W 053°56'0 0.0 28.1
2016-Aug-28 23:51N 28°14' W 053°56'0 0.0 28.1
2016-Aug-28 23:17N 28°14' W 053°56'0 1.6 28.1
2016-Aug-28 23:08N 28°14' W 053°55'0 0.0
2016-Aug-28 22:27N 28°14' W 053°55'1 3.6 28.2
2016-Aug-28 22:13N 28°13' W 053°56'110.1 28.2
2016-Aug-28 22:08N 28°14' W 053°55'1 1.4 28.2
2016-Aug-28 21:32N 28°13' W 053°56'0 0.0 28.2
2016-Aug-28 20:49N 28°13' W 053°56'0 2.0 28.2
2016-Aug-28 20:38N 28°13' W 053°56'1 1.2 28.2
2016-Aug-28 19:54N 28°12' W 053°56'1 0.6 28.2
2016-Aug-28 19:04N 28°12' W 053°57'0 2.2 28.2
2016-Aug-28 18:58N 28°12' W 053°57'1 0.7 28.2
2016-Aug-28 17:26N 28°12' W 053°58'2 1.0 28.2
2016-Aug-28 15:16N 28°10' W 053°59'0 0.0 28.2
2016-Aug-28 14:35N 28°10' W 053°59'1 3.8 28.2
2016-Aug-28 14:27N 28°10' W 053°59'0 0.1 28.2
2016-Aug-28 13:39N 28°10' W 053°59'1 1.2 28.2
2016-Aug-28 12:55N 28°09' W 054°00'1 4.5 28.2
2016-Aug-28 12:48N 28°09' W 054°00'0 0.3 28.2
2016-Aug-28 11:54N 28°09' W 054°01'1 8.2 28.2
2016-Aug-28 11:50N 28°09' W 054°00'0 0.0 28.2
2016-Aug-28 11:08N 28°09' W 054°00'1 1.5 28.3
2016-Aug-28 10:16N 28°08' W 054°02'1 1.8 28.3
2016-Aug-28 09:55N 28°08' W 054°01'1 0.4 28.3
2016-Aug-28 08:36N 28°08' W 054°01'1 1.7 28.4
2016-Aug-28 08:16N 28°07' W 054°02'0 0.9 28.4
2016-Aug-28 07:44N 28°07' W 054°02'112.1 28.4
2016-Aug-28 07:39N 28°07' W 054°01'2 1.1 28.4
2016-Aug-28 06:01N 28°06' W 054°03'3 0.5 28.5
2016-Aug-28 01:17N 28°04' W 054°05'1 5.1 28.5
2016-Aug-28 01:10N 28°04' W 054°06'0 0.0 28.5
2016-Aug-28 00:29N 28°04' W 054°06'0 1.1 28.5
2016-Aug-28 00:26N 28°04' W 054°06'0 0.5 28.5
2016-Aug-27 23:36N 28°04' W 054°06'0 3.3 28.5
2016-Aug-27 23:29N 28°04' W 054°07'0 0.0 28.5
2016-Aug-27 22:51N 28°04' W 054°07'0 0.0 28.5
2016-Aug-27 22:46N 28°04' W 054°07'1 0.6 28.5
2016-Aug-27 21:47N 28°04' W 054°08'1 8.1 28.5
2016-Aug-27 21:43N 28°04' W 054°08'0 0.0 28.5
2016-Aug-27 21:15N 28°04' W 054°08'1 0.7 28.5
2016-Aug-27 19:33N 28°04' W 054°09'0 3.6 28.5
2016-Aug-27 19:30N 28°04' W 054°09'0 0.0 28.5
2016-Aug-27 19:15N 28°04' W 054°09'1 6.9 28.5
2016-Aug-27 19:08N 28°04' W 054°10'0 0.0 28.5
2016-Aug-27 17:37N 28°04' W 054°10'1 5.5 28.5
2016-Aug-27 17:28N 28°05' W 054°10'0 0.0 28.5
2016-Aug-27 14:53N 28°05' W 054°10'1 0.6 28.6
2016-Aug-27 14:02N 28°04' W 054°10'1 1.1 28.6
2016-Aug-27 13:08N 28°05' W 054°10'1 1.4 28.6
2016-Aug-27 12:18N 28°05' W 054°09'1 2.9 28.6
2016-Aug-27 12:04N 28°05' W 054°09'0 0.0 28.6
2016-Aug-27 11:37N 28°05' W 054°09'1 1.0 28.5
2016-Aug-27 10:29N 28°06' W 054°08'0 2.1 28.6
2016-Aug-27 10:19N 28°06' W 054°08'0 0.0 28.6
2016-Aug-27 10:01N 28°06' W 054°08'0 0.0 28.6
2016-Aug-27 09:57N 28°06' W 054°08'2 1.3 28.6
2016-Aug-27 08:48N 28°06' W 054°06'1 8.2 28.7
2016-Aug-27 08:41N 28°07' W 054°05'0 0.0 28.7
2016-Aug-27 08:14N 28°07' W 054°05'0 0.0 28.7
2016-Aug-27 07:54N 28°07' W 054°05'0 3.6 28.7
2016-Aug-27 07:52N 28°07' W 054°05'1 0.5 28.7
2016-Aug-27 06:18N 28°07' W 054°04'0 2.9 28.7
2016-Aug-27 06:09N 28°07' W 054°04'3 0.6 28.7
2016-Aug-27 01:38N 28°07' W 054°01'0 1.8 28.7
2016-Aug-27 01:31N 28°07' W 054°01'0 0.0 28.7
2016-Aug-27 00:52N 28°07' W 054°01'0 0.8 28.7
2016-Aug-27 00:48N 28°07' W 054°01'0 3.8 28.7
2016-Aug-27 00:41N 28°07' W 054°01'0 0.0 28.7
2016-Aug-26 23:54N 28°07' W 054°01'0 5.2 28.7
2016-Aug-26 23:49N 28°07' W 054°01'0 0.0 28.7
2016-Aug-26 23:17N 28°07' W 054°01'0 1.4 28.7
2016-Aug-26 23:05N 28°07' W 054°00'0 0.4 28.7
2016-Aug-26 22:00N 28°06' W 053°60'0 0.5 28.7
2016-Aug-26 21:39N 28°06' W 053°60'1 0.5 28.7
2016-Aug-26 20:20N 28°06' W 053°59'0 1.4 28.7
2016-Aug-26 19:59N 28°06' W 053°59'0 0.0 28.7
2016-Aug-26 19:27N 28°06' W 053°59'1 8.1 28.7
2016-Aug-26 19:20N 28°05' W 053°59'0 0.0 28.7
2016-Aug-26 17:49N 28°05' W 053°59'4 2.0 28.7
2016-Aug-26 16:04N 28°04' W 053°56'0 0.0 28.6
2016-Aug-26 14:20N 28°04' W 053°56'0 5.4 28.7
2016-Aug-26 14:15N 28°04' W 053°55'0 0.0 28.7
2016-Aug-26 13:36N 28°04' W 053°55'0 4.8 28.7
2016-Aug-26 13:30N 28°04' W 053°55'0 0.0 28.7
2016-Aug-26 12:39N 28°04' W 053°55'1 1.4 28.7
2016-Aug-26 11:50N 28°03' W 053°54'0 0.3 28.7
2016-Aug-26 10:53N 28°03' W 053°53'0 0.0 28.7
2016-Aug-26 10:39N 28°03' W 053°53'0 0.5 28.7
2016-Aug-26 10:32N 28°03' W 053°53'0 0.0 28.7
2016-Aug-26 10:27N 28°03' W 053°53'1 0.6 28.7
2016-Aug-26 09:21N 28°03' W 053°53'0 0.4 28.7
2016-Aug-26 08:59N 28°03' W 053°53'0 0.6 28.7
2016-Aug-26 08:54N 28°03' W 053°53'0 9.5 28.7
2016-Aug-26 08:52N 28°03' W 053°52'0 0.0 28.7
2016-Aug-26 08:08N 28°03' W 053°52'0 0.5 28.7
2016-Aug-26 07:39N 28°03' W 053°52'1 0.6 28.7
2016-Aug-26 06:29N 28°03' W 053°52'0 0.0 28.7
2016-Aug-26 06:22N 28°03' W 053°52'2 0.4 28.7
2016-Aug-26 01:51N 28°02' W 053°50'011.8 28.8
2016-Aug-26 01:49N 28°01' W 053°50'0 0.0 28.8
2016-Aug-26 01:08N 28°01' W 053°50'0 1.1 28.8
2016-Aug-26 01:05N 28°01' W 053°50'0 0.4 28.8
2016-Aug-26 00:18N 28°01' W 053°49'0 0.5 28.8
2016-Aug-26 00:08N 28°01' W 053°49'0 0.0 28.8
2016-Aug-25 23:45N 28°01' W 053°49'0 0.0 28.8
2016-Aug-25 23:30N 28°01' W 053°49'1 5.0 28.8
2016-Aug-25 23:23N 28°01' W 053°49'0 0.2 28.8
2016-Aug-25 22:03N 28°00' W 053°49'0 0.3 28.9
2016-Aug-25 20:32N 28°00' W 053°50'1 4.5 28.9
2016-Aug-25 20:23N 27°60' W 053°49'0 0.2 28.9
2016-Aug-25 19:37N 27°60' W 053°49'1 0.8 29.0
2016-Aug-25 18:00N 27°58' W 053°49'2 0.9 28.9
2016-Aug-25 16:17N 27°57' W 053°48'1 0.6 28.9
2016-Aug-25 14:42N 27°56' W 053°48'1 7.4 28.8
2016-Aug-25 14:37N 27°56' W 053°48'0 0.1 28.8
2016-Aug-25 13:56N 27°56' W 053°48'1 1.1 28.7
2016-Aug-25 13:01N 27°55' W 053°47'2 0.8 28.7
2016-Aug-25 10:47N 27°54' W 053°46'0 5.4 28.7
2016-Aug-25 10:45N 27°54' W 053°46'0 0.2 28.7
2016-Aug-25 09:43N 27°54' W 053°45'0 0.3 28.7
2016-Aug-25 08:17N 27°54' W 053°45'0 0.2 28.7
2016-Aug-25 06:34N 27°54' W 053°45'3 0.6 28.7
2016-Aug-25 02:17N 27°52' W 053°42'0 3.2 28.8
2016-Aug-25 02:13N 27°52' W 053°42'0 0.1 28.8
2016-Aug-25 01:31N 27°52' W 053°42'1 5.4 28.8
2016-Aug-25 01:24N 27°52' W 053°42'0 0.0 28.8
2016-Aug-25 00:37N 27°52' W 053°42'0 0.4 28.9
2016-Aug-24 23:51N 27°52' W 053°41'1 4.2 28.9
2016-Aug-24 23:42N 27°51' W 053°41'0 0.2 28.9
2016-Aug-24 22:54N 27°51' W 053°41'0 0.4 28.9
2016-Aug-24 22:23N 27°51' W 053°41'1 0.5
2016-Aug-24 20:54N 27°50' W 053°41'0 1.4 29.0
2016-Aug-24 20:49N 27°50' W 053°41'0 0.7 29.0
2016-Aug-24 20:44N 27°50' W 053°41'1 1.0 29.0
2016-Aug-24 19:47N 27°49' W 053°40'1 0.9 29.1
2016-Aug-24 18:10N 27°49' W 053°39'0 1.1 29.2
2016-Aug-24 18:07N 27°49' W 053°39'2 1.5
2016-Aug-24 16:29N 27°47' W 053°38'0 0.0 29.1
2016-Aug-24 14:59N 27°47' W 053°38'0 0.0 29.0
2016-Aug-24 14:17N 27°47' W 053°38'1 7.5 28.9
2016-Aug-24 14:08N 27°46' W 053°37'0 0.0 28.9
2016-Aug-24 13:21N 27°46' W 053°37'0 0.2 28.9
2016-Aug-24 11:13N 27°46' W 053°37'0 1.6 28.9
2016-Aug-24 11:06N 27°45' W 053°37'0 2.1 28.9
2016-Aug-24 10:59N 27°46' W 053°36'1 0.9 28.9
2016-Aug-24 10:14N 27°45' W 053°36'0 0.1 28.9
2016-Aug-24 09:28N 27°45' W 053°36'0 0.0 28.9
2016-Aug-24 09:21N 27°45' W 053°36'0 0.4 28.9
2016-Aug-24 08:27N 27°45' W 053°36'1 0.6 28.9
2016-Aug-24 06:44N 27°44' W 053°35'0 2.8 28.9
2016-Aug-24 06:40N 27°45' W 053°35'1 0.3 28.9
2016-Aug-24 02:34N 27°43' W 053°34'0 0.0 28.9
2016-Aug-24 01:49N 27°43' W 053°34'0 2.0 29.0
2016-Aug-24 01:44N 27°43' W 053°34'0 0.0 29.0
2016-Aug-24 00:54N 27°43' W 053°34'013.0 29.0
2016-Aug-24 00:52N 27°43' W 053°34'0 0.0 29.0
2016-Aug-24 00:08N 27°43' W 053°34'0 3.8 29.0
2016-Aug-24 00:02N 27°42' W 053°34'0 0.1 29.0
2016-Aug-23 23:07N 27°42' W 053°34'0 2.4 29.0
2016-Aug-23 23:05N 27°42' W 053°34'0 0.8 29.0
2016-Aug-23 22:49N 27°42' W 053°34'0 0.2 29.0
2016-Aug-23 22:33N 27°42' W 053°34'0 0.4 29.1
2016-Aug-23 21:31N 27°42' W 053°34'0 1.0 29.1
2016-Aug-23 21:15N 27°42' W 053°34'0 2.5 29.1
2016-Aug-23 21:06N 27°41' W 053°34'0 0.0 29.1
2016-Aug-23 20:53N 27°41' W 053°34'0 0.0 29.1
2016-Aug-23 20:52N 27°41' W 053°34'0 0.9 29.1
2016-Aug-23 20:48N 27°41' W 053°34'0 0.0 29.1
2016-Aug-23 20:00N 27°41' W 053°34'2 2.9 29.1
2016-Aug-23 19:26N 27°40' W 053°33'0 0.0 29.1
2016-Aug-23 18:20N 27°40' W 053°33'111.4 29.1
2016-Aug-23 18:15N 27°40' W 053°32'2 1.1 29.1
2016-Aug-23 16:40N 27°39' W 053°31'0 0.0 29.1
2016-Aug-23 14:37N 27°39' W 053°31'0 3.4 28.9
2016-Aug-23 14:30N 27°38' W 053°31'0 0.1 28.9
2016-Aug-23 13:42N 27°38' W 053°31'0 0.4 28.9
2016-Aug-23 12:50N 27°39' W 053°30'0 4.5 28.9
2016-Aug-23 12:45N 27°38' W 053°30'0 0.6 28.9
2016-Aug-23 11:58N 27°38' W 053°30'0 0.0 28.8
2016-Aug-23 11:37N 27°38' W 053°30'0 0.5 28.8
2016-Aug-23 11:17N 27°38' W 053°30'0 1.5 28.8
2016-Aug-23 11:08N 27°38' W 053°30'0 1.2 28.8
2016-Aug-23 10:49N 27°38' W 053°30'0 2.4 28.8
2016-Aug-23 10:43N 27°38' W 053°30'0 0.0 28.8
2016-Aug-23 10:01N 27°38' W 053°30'0 0.5 28.8
2016-Aug-23 09:54N 27°38' W 053°30'0 0.2 28.8
2016-Aug-23 09:32N 27°38' W 053°30'0 1.5 28.8
2016-Aug-23 09:25N 27°38' W 053°30'0 0.0 28.8
2016-Aug-23 09:07N 27°38' W 053°30'0 0.4 28.8
2016-Aug-23 08:39N 27°38' W 053°30'1 3.4
2016-Aug-23 08:19N 27°37' W 053°29'0 0.0 28.8
2016-Aug-23 07:31N 27°37' W 053°29'0 0.6 28.8
2016-Aug-23 06:53N 27°37' W 053°29'2 0.4 28.8
2016-Aug-23 02:05N 27°35' W 053°28'0 0.0 28.8
2016-Aug-23 01:20N 27°35' W 053°28'0 1.6 28.9
2016-Aug-23 01:09N 27°35' W 053°28'0 0.0
2016-Aug-23 00:34N 27°35' W 053°28'0 2.4 28.9
2016-Aug-23 00:26N 27°35' W 053°28'0 0.5 28.9
2016-Aug-22 23:38N 27°35' W 053°28'1 0.7 28.9
2016-Aug-22 22:45N 27°34' W 053°28'112.4 28.9
2016-Aug-22 22:41N 27°34' W 053°27'0 0.0 28.9
2016-Aug-22 22:02N 27°34' W 053°27'0 1.1 28.9
2016-Aug-22 21:39N 27°34' W 053°27'1 1.0 28.9
2016-Aug-22 21:03N 27°34' W 053°27'0 0.0 29.0
2016-Aug-22 20:17N 27°34' W 053°27'0 1.2 29.0
2016-Aug-22 19:57N 27°34' W 053°26'1 1.4 29.0
2016-Aug-22 19:23N 27°33' W 053°25'0 0.0 29.0
2016-Aug-22 18:32N 27°33' W 053°25'1 8.2 29.0
2016-Aug-22 18:26N 27°33' W 053°26'1 0.6 29.0
2016-Aug-22 16:52N 27°32' W 053°25'2 0.6 29.0
2016-Aug-22 14:02N 27°32' W 053°24'0 3.3 28.9
2016-Aug-22 13:57N 27°32' W 053°23'0 0.0 28.9
2016-Aug-22 13:19N 27°32' W 053°23'0 0.0 28.9
2016-Aug-22 13:14N 27°32' W 053°23'0 0.4 28.9
2016-Aug-22 12:21N 27°32' W 053°23'0 3.7 28.9
2016-Aug-22 12:17N 27°32' W 053°23'0 0.0 28.9
2016-Aug-22 11:27N 27°32' W 053°23'0 9.7 28.9
2016-Aug-22 11:24N 27°32' W 053°23'0 0.4 28.9
2016-Aug-22 10:23N 27°32' W 053°23'0 0.7 28.8
2016-Aug-22 09:47N 27°32' W 053°23'0 1.6 28.8
2016-Aug-22 09:44N 27°32' W 053°23'0 0.1 28.8
2016-Aug-22 08:41N 27°32' W 053°23'0 0.0 28.8
2016-Aug-22 08:02N 27°32' W 053°23'0 0.2 28.8
2016-Aug-22 07:09N 27°32' W 053°22'1 6.0 28.8
2016-Aug-22 07:03N 27°31' W 053°22'1 0.3 28.8
2016-Aug-22 01:40N 27°30' W 053°22'1 5.2 28.9
2016-Aug-22 01:33N 27°30' W 053°21'0 0.0 28.9
2016-Aug-22 00:54N 27°30' W 053°21'0 1.0 28.9
2016-Aug-22 00:47N 27°30' W 053°21'0 0.5 28.9
2016-Aug-21 23:53N 27°30' W 053°21'1 0.6 28.9
2016-Aug-21 22:55N 27°29' W 053°21'0 4.0 28.9
2016-Aug-21 22:51N 27°29' W 053°21'0 0.0 28.9
2016-Aug-21 22:33N 27°29' W 053°21'1 1.2 28.9
2016-Aug-21 22:03N 27°29' W 053°21'0 2.6 28.9
2016-Aug-21 21:54N 27°29' W 053°21'1 0.8 28.9
2016-Aug-21 20:53N 27°29' W 053°20'0 0.7 28.9
2016-Aug-21 20:21N 27°28' W 053°20'1 1.0 28.9
2016-Aug-21 19:37N 27°29' W 053°19'1 0.8 28.9
2016-Aug-21 18:38N 27°28' W 053°20'1 0.9 28.9
2016-Aug-21 17:03N 27°28' W 053°18'2 0.6 28.9
2016-Aug-21 14:25N 27°28' W 053°17'1 0.9 28.8
2016-Aug-21 13:36N 27°28' W 053°16'0 0.3 28.8
2016-Aug-21 12:43N 27°28' W 053°16'0 0.4 28.8
2016-Aug-21 11:37N 27°28' W 053°16'0 4.1 28.8
2016-Aug-21 11:32N 27°28' W 053°15'0 0.2 28.8
2016-Aug-21 10:49N 27°28' W 053°15'0 0.7 28.8
2016-Aug-21 10:15N 27°28' W 053°15'0 0.5 28.8
2016-Aug-21 10:08N 27°28' W 053°15'1 2.2 28.8
2016-Aug-21 09:52N 27°29' W 053°15'0 0.1 28.8
2016-Aug-21 08:35N 27°28' W 053°15'0 0.3 28.8
2016-Aug-21 07:24N 27°29' W 053°15'0 0.1 28.8
2016-Aug-21 05:40N 27°29' W 053°15'1 0.1 28.9
2016-Aug-21 02:01N 27°28' W 053°15'0 1.6 28.9
2016-Aug-21 01:54N 27°28' W 053°15'0 0.7 28.9
2016-Aug-21 01:11N 27°28' W 053°15'0 0.0 28.9
2016-Aug-21 00:19N 27°28' W 053°15'0 0.3 28.9
2016-Aug-20 23:35N 27°28' W 053°15'0 2.0 29.0
2016-Aug-20 23:24N 27°27' W 053°15'0 0.9 29.0
2016-Aug-20 23:06N 27°27' W 053°15'1 7.7 29.0
2016-Aug-20 22:59N 27°27' W 053°14'0 0.0 29.0
2016-Aug-20 22:23N 27°27' W 053°14'0 0.1 29.0
2016-Aug-20 21:24N 27°26' W 053°15'018.3 29.1
2016-Aug-20 21:23N 27°26' W 053°14'0 0.4 29.1
2016-Aug-20 20:49N 27°26' W 053°14'0 0.0 29.1
2016-Aug-20 20:38N 27°26' W 053°14'1 1.2 29.2
2016-Aug-20 19:48N 27°26' W 053°13'0 0.0 29.2
2016-Aug-20 18:55N 27°26' W 053°13'0 3.4 29.3
2016-Aug-20 18:49N 27°26' W 053°14'2 0.4 29.3
2016-Aug-20 14:45N 27°26' W 053°12'0 4.1 29.1
2016-Aug-20 14:40N 27°26' W 053°11'0 0.0
2016-Aug-20 13:53N 27°26' W 053°11'110.2 29.0
2016-Aug-20 13:50N 27°26' W 053°11'0 0.2 29.0
2016-Aug-20 12:08N 27°26' W 053°11'0 0.0
2016-Aug-20 11:48N 27°26' W 053°11'0 0.7 28.8
2016-Aug-20 11:13N 27°26' W 053°11'1 1.1 28.8
2016-Aug-20 10:42N 27°26' W 053°10'0 0.0 28.8
2016-Aug-20 10:09N 27°26' W 053°10'0 0.0 28.8
2016-Aug-20 10:05N 27°26' W 053°10'0 0.0 28.8
2016-Aug-20 10:01N 27°26' W 053°10'0 0.2 28.8
2016-Aug-20 09:28N 27°26' W 053°11'0 0.3 28.8
2016-Aug-20 09:06N 27°26' W 053°10'0 1.5 28.8
2016-Aug-20 09:01N 27°26' W 053°11'0 0.6 28.8
2016-Aug-20 08:27N 27°26' W 053°10'0 0.1 28.9
2016-Aug-20 07:49N 27°26' W 053°10'0 0.0 28.9
2016-Aug-20 07:30N 27°26' W 053°10'0 0.0 28.9
2016-Aug-20 07:25N 27°26' W 053°10'0 0.0 28.9
2016-Aug-20 05:52N 27°26' W 053°10'1 0.2 28.9
2016-Aug-20 02:21N 27°26' W 053°10'1 0.7 29.1
2016-Aug-20 01:33N 27°26' W 053°11'0 0.0 29.1
2016-Aug-20 00:40N 27°26' W 053°11'0 0.5 29.1
2016-Aug-20 00:34N 27°26' W 053°11'0 0.0 29.1
2016-Aug-19 23:53N 27°26' W 053°11'0 3.2
2016-Aug-19 23:52N 27°26' W 053°10'1 2.2 29.2
2016-Aug-19 23:32N 27°25' W 053°10'0 0.7 29.2
2016-Aug-19 22:54N 27°25' W 053°11'0 0.0 29.2
2016-Aug-19 22:49N 27°25' W 053°11'0 0.0 29.2
2016-Aug-19 21:54N 27°25' W 053°11'1 3.3 29.3
2016-Aug-19 21:43N 27°25' W 053°10'0 1.1 29.3
2016-Aug-19 21:40N 27°25' W 053°10'114.3 29.3
2016-Aug-19 21:36N 27°25' W 053°11'1 1.9 29.3
2016-Aug-19 21:07N 27°25' W 053°10'0 0.0 29.4
2016-Aug-19 20:01N 27°25' W 053°10'   29.4

Dump ship's entire track history